createdAt,value
2019-03-21T00:00:50.452Z,15.77
2019-03-21T00:03:17.861Z,12.17
2019-03-21T00:05:45.369Z,14.90
2019-03-21T00:08:12.805Z,16.23
2019-03-21T00:11:19.006Z,10.57
2019-03-21T00:13:46.566Z,14.20
2019-03-21T00:16:13.949Z,12.93
2019-03-21T00:18:41.369Z,12.33
2019-03-21T00:21:08.783Z,13.93
2019-03-21T00:23:36.202Z,15.37
2019-03-21T00:26:03.726Z,14.37
2019-03-21T00:28:31.112Z,11.87
2019-03-21T00:30:58.524Z,11.33
2019-03-21T00:33:26.201Z,12.47
2019-03-21T00:35:54.623Z,14.37
2019-03-21T00:38:22.043Z,10.97
2019-03-21T00:40:49.720Z,11.33
2019-03-21T00:43:17.118Z,11.20
2019-03-21T00:45:44.664Z,13.10
2019-03-21T00:48:13.669Z,9.53
2019-03-21T00:50:42.176Z,9.33
2019-03-21T00:53:09.564Z,9.37
2019-03-21T00:55:37.835Z,11.57
2019-03-21T00:58:05.396Z,12.77
2019-03-21T01:00:39.168Z,10.17
2019-03-21T01:03:07.273Z,12.40
2019-03-21T01:05:35.801Z,15.63
2019-03-21T01:08:03.410Z,13.07
2019-03-21T01:10:31.909Z,18.07
2019-03-21T01:12:59.372Z,11.93
2019-03-21T01:15:26.876Z,14.33
2019-03-21T01:17:54.257Z,11.43
2019-03-21T01:20:21.674Z,10.13
2019-03-21T01:22:49.201Z,11.13
2019-03-21T01:25:26.038Z,10.00
2019-03-21T01:27:53.537Z,9.13
2019-03-21T01:30:21.044Z,9.87
2019-03-21T01:32:48.469Z,12.30
2019-03-21T01:35:15.970Z,12.10
2019-03-21T01:37:43.756Z,14.57
2019-03-21T01:40:14.022Z,12.80
2019-03-21T01:42:41.429Z,12.37
2019-03-21T01:45:10.750Z,12.13
2019-03-21T01:47:39.126Z,13.00
2019-03-21T01:50:07.016Z,12.10
2019-03-21T01:52:34.663Z,13.47
2019-03-21T01:55:02.078Z,13.97
2019-03-21T01:57:29.481Z,13.13
2019-03-21T01:59:56.887Z,11.70
2019-03-21T02:02:24.293Z,11.10
2019-03-21T02:04:51.700Z,12.73
2019-03-21T02:07:19.120Z,13.87
2019-03-21T02:09:46.529Z,13.60
2019-03-21T02:12:13.950Z,12.33
2019-03-21T02:14:51.596Z,11.93
2019-03-21T02:17:10.707Z,12.13
2019-03-21T02:19:38.110Z,10.53
2019-03-21T02:22:05.521Z,17.30
2019-03-21T02:24:32.929Z,14.80
2019-03-21T02:27:01.378Z,12.67
2019-03-21T02:29:28.809Z,11.93
2019-03-21T02:31:56.550Z,15.80
2019-03-21T02:34:23.981Z,13.60
2019-03-21T02:36:51.487Z,16.53
2019-03-21T02:39:19.157Z,15.77
2019-03-21T02:41:46.558Z,13.07
2019-03-21T02:44:14.072Z,15.73
2019-03-21T02:46:41.509Z,9.90
2019-03-21T02:49:09.004Z,12.47
2019-03-21T02:51:37.413Z,9.87
2019-03-21T02:54:04.933Z,11.67
2019-03-21T02:56:32.333Z,9.57
2019-03-21T02:59:00.059Z,11.57
2019-03-21T03:01:27.453Z,13.53
2019-03-21T03:03:55.332Z,10.03
2019-03-21T03:06:22.817Z,13.23
2019-03-21T03:08:50.250Z,9.07
2019-03-21T03:11:17.891Z,13.00
2019-03-21T03:13:46.497Z,14.50
2019-03-21T03:16:14.015Z,11.97
2019-03-21T03:18:41.420Z,17.80
2019-03-21T03:21:09.127Z,14.57
2019-03-21T03:23:36.788Z,12.10
2019-03-21T03:26:04.544Z,12.67
2019-03-21T03:28:32.002Z,13.83
2019-03-21T03:31:00.203Z,12.60
2019-03-21T03:33:27.603Z,13.87
2019-03-21T03:35:55.100Z,12.93
2019-03-21T03:38:22.566Z,15.50
2019-03-21T03:40:52.907Z,18.23
2019-03-21T03:43:20.431Z,17.83
2019-03-21T03:45:48.626Z,12.67
2019-03-21T03:48:19.642Z,15.53
2019-03-21T03:50:45.674Z,12.27
2019-03-21T03:53:13.353Z,13.43
2019-03-21T03:55:40.761Z,11.73
2019-03-21T03:58:10.229Z,11.93
2019-03-21T04:00:38.951Z,11.47
2019-03-21T04:03:06.393Z,14.17
2019-03-21T04:05:34.131Z,10.33
2019-03-21T04:08:01.725Z,12.63
2019-03-21T04:10:31.730Z,14.37
2019-03-21T04:12:59.596Z,11.10
2019-03-21T04:15:27.224Z,14.77
2019-03-21T04:17:54.628Z,15.63
2019-03-21T04:20:24.554Z,12.47
2019-03-21T04:22:51.948Z,12.27
2019-03-21T04:25:22.582Z,13.90
2019-03-21T04:27:49.950Z,16.53
2019-03-21T04:30:17.377Z,15.83
2019-03-21T04:33:04.265Z,12.53
2019-03-21T04:35:31.673Z,16.53
2019-03-21T04:37:59.066Z,16.63
2019-03-21T04:40:27.326Z,16.67
2019-03-21T04:42:54.759Z,15.07
2019-03-21T04:45:22.341Z,17.67
2019-03-21T04:47:49.749Z,17.13
2019-03-21T04:50:19.553Z,14.83
2019-03-21T04:52:47.061Z,17.97
2019-03-21T04:55:14.472Z,14.93
2019-03-21T04:57:41.967Z,17.80
2019-03-21T05:00:15.194Z,11.50
2019-03-21T05:02:42.942Z,16.80
2019-03-21T05:05:10.574Z,12.23
2019-03-21T05:07:37.985Z,18.23
2019-03-21T05:10:07.163Z,18.23
2019-03-21T05:12:34.697Z,17.93
2019-03-21T05:15:02.217Z,13.60
2019-03-21T05:17:29.637Z,11.90
2019-03-21T05:19:57.045Z,15.83
2019-03-21T05:22:24.562Z,11.87
2019-03-21T05:24:52.091Z,14.73
2019-03-21T05:27:19.511Z,13.33
2019-03-21T05:29:46.929Z,16.20
2019-03-21T05:32:14.354Z,14.17
2019-03-21T05:34:41.746Z,14.50
2019-03-21T05:37:09.420Z,17.37
2019-03-21T05:39:36.821Z,14.33
2019-03-21T05:42:08.158Z,18.27
2019-03-21T05:44:39.213Z,17.50
2019-03-21T05:47:06.654Z,14.20
2019-03-21T05:49:34.022Z,16.00
2019-03-21T05:52:01.425Z,16.50
2019-03-21T05:54:29.133Z,16.43
2019-03-21T05:56:56.533Z,18.70
2019-03-21T05:59:23.930Z,18.67
2019-03-21T06:01:51.413Z,14.37
2019-03-21T06:04:18.801Z,21.43
2019-03-21T06:07:26.156Z,17.57
2019-03-21T06:09:53.554Z,22.57
2019-03-21T06:12:21.208Z,17.20
2019-03-21T06:14:52.397Z,17.03
2019-03-21T06:17:19.909Z,14.60
2019-03-21T06:20:09.921Z,20.10
2019-03-21T06:22:44.129Z,20.17
2019-03-21T06:25:27.670Z,17.23
2019-03-21T06:27:55.062Z,16.60
2019-03-21T06:30:22.461Z,13.20
2019-03-21T06:32:49.983Z,11.67
2019-03-21T06:35:21.616Z,14.50
2019-03-21T06:37:49.029Z,13.53
2019-03-21T06:40:16.549Z,15.90
2019-03-21T06:42:44.066Z,11.57
2019-03-21T06:45:11.688Z,16.77
2019-03-21T06:47:39.080Z,15.40
2019-03-21T06:50:07.624Z,18.87
2019-03-21T06:52:35.018Z,16.53
2019-03-21T06:55:02.755Z,15.13
2019-03-21T06:57:31.147Z,13.93
2019-03-21T06:59:58.545Z,18.03
2019-03-21T07:02:25.941Z,15.70
2019-03-21T07:04:53.348Z,13.67
2019-03-21T07:07:20.721Z,16.23
2019-03-21T07:09:48.215Z,16.90
2019-03-21T07:12:15.695Z,20.40
2019-03-21T07:14:44.092Z,25.07
2019-03-21T07:17:11.512Z,18.90
2019-03-21T07:19:38.889Z,23.93
2019-03-21T07:22:06.305Z,23.23
2019-03-21T07:24:33.709Z,16.33
2019-03-21T07:27:01.105Z,20.60
2019-03-21T07:29:28.486Z,15.53
2019-03-21T07:31:56.028Z,16.03
2019-03-21T07:34:23.404Z,17.00
2019-03-21T07:36:50.807Z,14.43
2019-03-21T07:39:18.725Z,17.07
2019-03-21T07:41:46.137Z,16.03
2019-03-21T07:44:13.553Z,17.53
2019-03-21T07:46:40.980Z,17.13
2019-03-21T07:49:08.375Z,18.77
2019-03-21T07:51:35.781Z,23.03
2019-03-21T07:54:03.401Z,17.23
2019-03-21T07:56:30.894Z,16.80
2019-03-21T07:58:58.291Z,16.97
2019-03-21T08:01:25.716Z,13.80
2019-03-21T08:03:53.130Z,19.20
2019-03-21T08:06:20.584Z,15.40
2019-03-21T08:08:48.953Z,16.57
2019-03-21T08:11:16.412Z,19.50
2019-03-21T08:13:43.820Z,14.93
2019-03-21T08:16:12.269Z,18.90
2019-03-21T08:18:39.776Z,13.27
2019-03-21T08:21:07.186Z,18.30
2019-03-21T08:23:35.820Z,15.77
2019-03-21T08:26:03.304Z,19.13
2019-03-21T08:28:31.067Z,18.47
2019-03-21T08:31:14.800Z,12.17
2019-03-21T08:33:42.502Z,20.43
2019-03-21T08:36:09.911Z,15.03
2019-03-21T08:38:37.328Z,17.20
2019-03-21T08:41:04.844Z,11.97
2019-03-21T08:43:32.282Z,12.03
2019-03-21T08:45:59.993Z,11.00
2019-03-21T08:48:27.420Z,11.30
2019-03-21T08:50:54.944Z,13.47
2019-03-21T08:53:22.352Z,14.77
2019-03-21T08:55:49.854Z,15.43
2019-03-21T08:58:17.260Z,14.67
2019-03-21T09:00:44.778Z,14.83
2019-03-21T09:03:12.180Z,11.97
2019-03-21T09:05:39.686Z,12.70
2019-03-21T09:08:07.146Z,19.47
2019-03-21T09:10:34.742Z,12.53
2019-03-21T09:13:02.337Z,14.90
2019-03-21T09:15:29.969Z,17.83
2019-03-21T09:17:57.505Z,14.50
2019-03-21T09:20:25.020Z,12.47
2019-03-21T09:22:52.416Z,14.07
2019-03-21T09:25:19.839Z,19.83
2019-03-21T09:27:47.501Z,15.20
2019-03-21T09:30:15.231Z,11.77
2019-03-21T09:32:42.621Z,13.63
2019-03-21T09:35:12.354Z,16.43
2019-03-21T09:37:39.741Z,12.97
2019-03-21T09:40:07.401Z,12.83
2019-03-21T09:42:34.834Z,13.53
2019-03-21T09:45:03.120Z,15.60
2019-03-21T09:47:30.577Z,12.43
2019-03-21T09:49:59.295Z,16.57
2019-03-21T09:52:27.196Z,13.27
2019-03-21T09:54:54.698Z,19.27
2019-03-21T09:57:22.122Z,14.13
2019-03-21T09:59:49.523Z,14.57
2019-03-21T10:02:17.027Z,15.10
2019-03-21T10:04:44.440Z,15.73
2019-03-21T10:07:11.885Z,14.17
2019-03-21T10:09:39.275Z,13.10
2019-03-21T10:12:06.689Z,18.47
2019-03-21T10:14:35.117Z,13.03
2019-03-21T10:17:02.722Z,13.20
2019-03-21T10:19:30.098Z,16.67
2019-03-21T10:21:57.501Z,13.00
2019-03-21T10:24:24.930Z,13.40
2019-03-21T10:26:52.593Z,17.97
2019-03-21T10:29:20.013Z,14.20
2019-03-21T10:31:47.582Z,12.83
2019-03-21T10:34:14.982Z,14.70
2019-03-21T10:36:42.413Z,13.93
2019-03-21T10:39:09.969Z,10.37
2019-03-21T10:41:37.477Z,9.40
2019-03-21T10:44:05.050Z,11.23
2019-03-21T10:46:32.478Z,9.90
2019-03-21T10:49:00.221Z,9.23
2019-03-21T10:51:27.828Z,9.77
2019-03-21T10:53:55.368Z,7.23
2019-03-21T10:56:22.834Z,8.13
2019-03-21T10:58:50.484Z,8.63
2019-03-21T11:01:18.950Z,9.60
2019-03-21T11:03:46.393Z,8.83
2019-03-21T11:06:13.954Z,8.40
2019-03-21T11:08:41.399Z,8.73
2019-03-21T11:11:08.978Z,7.43
2019-03-21T11:13:36.529Z,7.10
2019-03-21T11:16:04.054Z,6.70
2019-03-21T11:18:35.907Z,7.67
2019-03-21T11:21:01.154Z,7.30
2019-03-21T11:23:28.718Z,7.33
2019-03-21T11:25:56.149Z,7.23
2019-03-21T11:28:23.587Z,7.10
2019-03-21T11:30:51.001Z,7.07
2019-03-21T11:33:18.451Z,6.30
2019-03-21T11:35:46.009Z,7.30
2019-03-21T11:38:13.599Z,6.63
2019-03-21T11:40:41.351Z,6.97
2019-03-21T11:43:11.350Z,7.37
2019-03-21T11:45:38.941Z,6.23
2019-03-21T11:48:06.491Z,6.00
2019-03-21T11:50:34.108Z,6.00
2019-03-21T11:53:01.695Z,6.93
2019-03-21T11:55:29.381Z,7.43
2019-03-21T11:57:56.961Z,4.87
2019-03-21T12:00:24.540Z,5.17
2019-03-21T12:02:52.138Z,6.07
2019-03-21T12:05:19.720Z,5.80
2019-03-21T12:07:47.192Z,7.30
2019-03-21T12:10:16.265Z,5.43
2019-03-21T12:12:43.814Z,5.27
2019-03-21T12:15:12.176Z,5.77
2019-03-21T12:17:39.833Z,6.63
2019-03-21T12:20:07.638Z,5.37
2019-03-21T12:22:35.072Z,6.33
2019-03-21T12:25:03.129Z,6.13
2019-03-21T12:27:30.615Z,6.90
2019-03-21T12:29:58.061Z,6.17
2019-03-21T12:32:27.088Z,7.10
2019-03-21T12:34:54.628Z,5.57
2019-03-21T12:37:22.338Z,6.83
2019-03-21T12:39:49.889Z,4.97
2019-03-21T12:42:17.317Z,5.47
2019-03-21T12:44:44.821Z,5.80
2019-03-21T12:47:12.400Z,7.17
2019-03-21T12:49:39.847Z,6.47
2019-03-21T12:52:07.287Z,6.40
2019-03-21T12:54:34.712Z,6.77
2019-03-21T12:57:02.695Z,7.10
2019-03-21T12:59:30.390Z,7.43
2019-03-21T13:01:57.929Z,7.43
2019-03-21T13:04:25.360Z,6.60
2019-03-21T13:06:52.816Z,7.07
2019-03-21T13:09:20.256Z,7.33
2019-03-21T13:11:47.678Z,6.97
2019-03-21T13:14:15.250Z,7.50
2019-03-21T13:16:42.932Z,7.23
2019-03-21T13:19:10.621Z,6.83
2019-03-21T13:21:38.456Z,10.77
2019-03-21T13:24:06.183Z,7.20
2019-03-21T13:26:33.759Z,7.60
2019-03-21T13:29:01.618Z,8.23
2019-03-21T13:31:29.299Z,11.23
2019-03-21T13:33:57.006Z,9.73
2019-03-21T13:36:24.758Z,7.37
2019-03-21T13:38:52.469Z,8.47
2019-03-21T13:41:20.112Z,8.37
2019-03-21T13:43:47.753Z,8.53
2019-03-21T13:46:15.827Z,6.97
2019-03-21T13:48:43.526Z,7.60
2019-03-21T13:51:11.205Z,6.90
2019-03-21T13:53:38.811Z,8.70
2019-03-21T13:56:06.667Z,8.10
2019-03-21T13:58:34.384Z,9.40
2019-03-21T14:01:03.238Z,7.80
2019-03-21T14:03:30.998Z,9.37
2019-03-21T14:05:58.743Z,8.87
2019-03-21T14:08:26.622Z,9.40
2019-03-21T14:10:54.368Z,8.50
2019-03-21T14:13:21.975Z,8.80
2019-03-21T14:15:49.629Z,8.37
2019-03-21T14:18:17.754Z,8.50
2019-03-21T14:20:45.414Z,7.87
2019-03-21T14:23:17.315Z,8.33
2019-03-21T14:25:42.722Z,8.40
2019-03-21T14:28:10.616Z,8.13
2019-03-21T14:30:38.353Z,8.60
2019-03-21T14:33:08.332Z,10.67
2019-03-21T14:35:36.212Z,7.80
2019-03-21T14:38:03.976Z,7.93
2019-03-21T14:40:31.577Z,7.87
2019-03-21T14:42:59.317Z,8.13
2019-03-21T14:45:27.319Z,10.23
2019-03-21T14:47:54.891Z,8.23
2019-03-21T14:50:22.519Z,8.63
2019-03-21T14:52:50.338Z,7.60
2019-03-21T14:55:18.054Z,8.97
2019-03-21T14:57:45.599Z,15.13
2019-03-21T15:00:15.939Z,8.70
2019-03-21T15:02:43.702Z,9.20
2019-03-21T15:05:11.597Z,9.53
2019-03-21T15:07:39.419Z,8.67
2019-03-21T15:10:08.124Z,8.73
2019-03-21T15:12:35.937Z,9.07
2019-03-21T15:15:05.086Z,9.67
2019-03-21T15:17:32.714Z,10.13
2019-03-21T15:20:00.446Z,11.93
2019-03-21T15:22:29.103Z,9.30
2019-03-21T15:24:57.578Z,9.97
2019-03-21T15:27:25.094Z,14.27
2019-03-21T15:29:52.907Z,9.57
2019-03-21T15:32:20.602Z,11.03
2019-03-21T15:34:48.377Z,9.73
2019-03-21T15:37:16.066Z,9.20
2019-03-21T15:39:43.790Z,8.77
2019-03-21T15:42:11.375Z,8.87
2019-03-21T15:44:38.948Z,9.63
2019-03-21T15:47:06.792Z,9.17
2019-03-21T15:49:34.564Z,8.53
2019-03-21T15:52:02.338Z,9.07
2019-03-21T15:54:29.901Z,9.23
2019-03-21T15:56:57.523Z,12.03
2019-03-21T15:59:25.302Z,11.30
2019-03-21T16:01:53.143Z,9.33
2019-03-21T16:04:21.094Z,13.47
2019-03-21T16:06:48.779Z,13.07
2019-03-21T16:09:16.650Z,11.00
2019-03-21T16:11:44.793Z,9.27
2019-03-21T16:14:12.827Z,16.73
2019-03-21T16:16:40.447Z,13.20
2019-03-21T16:19:08.243Z,13.53
2019-03-21T16:21:35.825Z,14.63
2019-03-21T16:24:05.344Z,14.53
2019-03-21T16:26:33.479Z,13.13
2019-03-21T16:29:01.062Z,16.17
2019-03-21T16:31:28.463Z,14.70
2019-03-21T16:33:55.855Z,13.30
2019-03-21T16:36:23.276Z,16.53
2019-03-21T16:38:50.997Z,14.23
2019-03-21T16:41:18.370Z,14.27
2019-03-21T16:43:45.783Z,15.00
2019-03-21T16:46:13.171Z,17.13
2019-03-21T16:48:40.669Z,13.77
2019-03-21T16:51:08.059Z,15.60
2019-03-21T16:53:36.456Z,18.33
2019-03-21T16:56:03.945Z,18.57
2019-03-21T16:58:32.439Z,16.37
2019-03-21T17:00:59.880Z,15.20
2019-03-21T17:03:27.283Z,13.47
2019-03-21T17:05:54.925Z,13.43
2019-03-21T17:08:22.621Z,16.37
2019-03-21T17:10:50.137Z,16.77
2019-03-21T17:13:18.267Z,14.07
2019-03-21T17:15:45.695Z,15.93
2019-03-21T17:18:13.129Z,22.30
2019-03-21T17:20:40.623Z,14.67
2019-03-21T17:23:08.012Z,14.80
2019-03-21T17:25:35.471Z,15.97
2019-03-21T17:28:03.063Z,16.60
2019-03-21T17:30:30.562Z,16.03
2019-03-21T17:32:57.954Z,16.43
2019-03-21T17:35:25.318Z,15.73
2019-03-21T17:37:52.693Z,16.50
2019-03-21T17:40:20.111Z,17.63
2019-03-21T17:42:47.506Z,19.10
2019-03-21T17:45:15.720Z,15.83
2019-03-21T17:47:43.297Z,25.67
2019-03-21T17:50:11.650Z,17.67
2019-03-21T17:52:39.055Z,17.40
2019-03-21T17:55:09.037Z,16.87
2019-03-21T17:57:36.394Z,19.00
2019-03-21T18:00:07.050Z,19.37
2019-03-21T18:02:34.541Z,18.53
2019-03-21T18:05:02.214Z,21.83
2019-03-21T18:07:30.610Z,20.67
2019-03-21T18:09:57.994Z,19.60
2019-03-21T18:12:25.363Z,22.50
2019-03-21T18:14:52.761Z,19.00
2019-03-21T18:17:20.131Z,21.73
2019-03-21T18:19:47.615Z,20.63
2019-03-21T18:22:14.992Z,19.17
2019-03-21T18:24:53.426Z,19.57
2019-03-21T18:27:11.790Z,25.93
2019-03-21T18:29:39.182Z,20.53
2019-03-21T18:32:07.561Z,25.70
2019-03-21T18:34:34.949Z,21.83
2019-03-21T18:37:02.441Z,22.70
2019-03-21T18:39:29.856Z,23.50
2019-03-21T18:41:57.418Z,24.80
2019-03-21T18:44:24.801Z,22.17
2019-03-21T18:46:52.169Z,21.03
2019-03-21T18:49:19.553Z,22.50
2019-03-21T18:51:46.906Z,24.87
2019-03-21T18:54:14.328Z,23.70
2019-03-21T18:56:41.697Z,22.80
2019-03-21T18:59:09.326Z,25.10
2019-03-21T19:01:36.966Z,21.53
2019-03-21T19:04:04.341Z,21.97
2019-03-21T19:06:31.717Z,24.50
2019-03-21T19:08:59.101Z,21.80
2019-03-21T19:11:26.498Z,24.10
2019-03-21T19:13:53.913Z,21.57
2019-03-21T19:16:21.442Z,23.50
2019-03-21T19:18:48.814Z,23.73
2019-03-21T19:21:16.221Z,26.37
2019-03-21T19:23:43.675Z,27.37
2019-03-21T19:26:11.462Z,25.73
2019-03-21T19:28:38.851Z,27.60
2019-03-21T19:31:06.245Z,27.13
2019-03-21T19:33:33.738Z,27.50
2019-03-21T19:36:01.179Z,27.00
2019-03-21T19:38:28.675Z,25.60
2019-03-21T19:40:56.076Z,24.70
2019-03-21T19:43:23.549Z,25.53
2019-03-21T19:45:50.940Z,27.90
2019-03-21T19:48:18.328Z,24.87
2019-03-21T19:50:45.750Z,27.30
2019-03-21T19:53:13.251Z,29.70
2019-03-21T19:55:40.662Z,26.97
2019-03-21T19:58:08.132Z,29.80
2019-03-21T20:00:35.536Z,27.90
2019-03-21T20:03:03.201Z,31.43
2019-03-21T20:05:30.719Z,29.33
2019-03-21T20:07:58.144Z,30.63
2019-03-21T20:10:25.730Z,29.00
2019-03-21T20:12:53.114Z,26.87
2019-03-21T20:15:21.634Z,28.93
2019-03-21T20:17:49.130Z,27.50
2019-03-21T20:20:16.935Z,28.90
2019-03-21T20:22:44.670Z,25.07
2019-03-21T20:25:12.576Z,28.17
2019-03-21T20:27:40.296Z,24.43
2019-03-21T20:30:09.637Z,27.67
2019-03-21T20:32:37.119Z,29.77
2019-03-21T20:35:06.948Z,29.73
2019-03-21T20:37:34.353Z,26.93
2019-03-21T20:40:01.956Z,30.93
2019-03-21T20:42:29.526Z,28.77
2019-03-21T20:44:56.990Z,32.73
2019-03-21T20:47:24.401Z,30.17
2019-03-21T20:49:52.803Z,32.33
2019-03-21T20:52:20.356Z,32.20
2019-03-21T20:54:47.734Z,31.70
2019-03-21T20:57:15.430Z,26.87
2019-03-21T20:59:42.828Z,28.40
2019-03-21T21:02:10.353Z,29.43
2019-03-21T21:04:37.732Z,29.00
2019-03-21T21:07:05.229Z,31.17
2019-03-21T21:09:32.742Z,36.17
2019-03-21T21:12:00.149Z,32.73
2019-03-21T21:14:27.548Z,33.27
2019-03-21T21:16:55.933Z,35.00
2019-03-21T21:19:23.353Z,32.73
2019-03-21T21:21:50.790Z,36.60
2019-03-21T21:24:18.205Z,35.40
2019-03-21T21:26:45.630Z,30.77
2019-03-21T21:29:13.368Z,39.63
2019-03-21T21:31:40.777Z,33.57
2019-03-21T21:34:08.350Z,37.07
2019-03-21T21:36:35.719Z,32.73
2019-03-21T21:39:06.132Z,36.87
2019-03-21T21:41:33.654Z,34.30
2019-03-21T21:44:01.091Z,32.10
2019-03-21T21:46:28.586Z,33.03
2019-03-21T21:48:56.024Z,37.00
2019-03-21T21:51:23.453Z,39.50
2019-03-21T21:53:50.888Z,36.17
2019-03-21T21:56:18.373Z,30.80
2019-03-21T21:58:46.058Z,31.17
2019-03-21T22:01:13.787Z,34.00
2019-03-21T22:03:41.168Z,35.37
2019-03-21T22:06:08.667Z,38.50
2019-03-21T22:08:36.057Z,39.13
2019-03-21T22:11:03.665Z,45.83
2019-03-21T22:13:31.066Z,36.50
2019-03-21T22:15:58.516Z,36.47
2019-03-21T22:18:26.046Z,39.63
2019-03-21T22:20:53.452Z,43.10
2019-03-21T22:23:20.890Z,45.10
2019-03-21T22:25:48.357Z,42.47
2019-03-21T22:28:15.734Z,37.90
2019-03-21T22:30:43.188Z,42.37
2019-03-21T22:33:10.601Z,41.60
2019-03-21T22:35:38.020Z,49.00
2019-03-21T22:38:05.510Z,41.40
2019-03-21T22:40:33.085Z,42.67
2019-03-21T22:43:00.461Z,47.60
2019-03-21T22:45:27.887Z,48.60
2019-03-21T22:47:55.306Z,43.17
2019-03-21T22:50:22.710Z,44.90
2019-03-21T22:52:50.224Z,44.03
2019-03-21T22:55:17.713Z,43.37
2019-03-21T22:57:45.093Z,41.57
2019-03-21T23:00:15.838Z,50.60
2019-03-21T23:02:45.227Z,41.93
2019-03-21T23:05:13.200Z,49.70
2019-03-21T23:07:40.686Z,46.10
2019-03-21T23:10:08.491Z,46.07
2019-03-21T23:12:35.936Z,42.93
2019-03-21T23:15:04.961Z,45.80
2019-03-21T23:17:32.355Z,47.50
2019-03-21T23:19:59.758Z,47.00
2019-03-21T23:22:27.273Z,48.73
2019-03-21T23:24:54.893Z,55.73
2019-03-21T23:27:22.288Z,53.90
2019-03-21T23:29:50.341Z,55.80
2019-03-21T23:32:17.837Z,55.77
2019-03-21T23:34:45.233Z,55.70
2019-03-21T23:37:12.630Z,59.57
2019-03-21T23:39:40.010Z,56.00
2019-03-21T23:42:07.441Z,63.07
2019-03-21T23:44:35.042Z,57.07
2019-03-21T23:47:02.570Z,59.27
2019-03-21T23:49:29.945Z,60.50
2019-03-21T23:51:57.364Z,55.20
2019-03-21T23:54:24.857Z,62.33
2019-03-21T23:57:03.859Z,62.80
2019-03-21T23:59:21.813Z,62.77
